sensor_id;sensor_type;location;lat;lon;timestamp;P1;durP1;ratioP1;P2;durP2;ratioP2
50555;SDS011;36508;52.512;13.450;2023-06-14T00:01:51;6.50;;;6.07;;
50555;SDS011;36508;52.512;13.450;2023-06-14T00:04:17;4.20;;;3.90;;
50555;SDS011;36508;52.512;13.450;2023-06-14T00:06:43;4.23;;;3.03;;
50555;SDS011;36508;52.512;13.450;2023-06-14T00:09:13;3.37;;;3.07;;
50555;SDS011;36508;52.512;13.450;2023-06-14T00:11:40;3.67;;;3.47;;
50555;SDS011;36508;52.512;13.450;2023-06-14T00:14:06;3.90;;;3.70;;
50555;SDS011;36508;52.512;13.450;2023-06-14T00:16:32;4.10;;;3.80;;
50555;SDS011;36508;52.512;13.450;2023-06-14T00:18:58;5.03;;;3.10;;
50555;SDS011;36508;52.512;13.450;2023-06-14T00:21:24;5.27;;;3.50;;
50555;SDS011;36508;52.512;13.450;2023-06-14T00:23:59;4.03;;;3.63;;
50555;SDS011;36508;52.512;13.450;2023-06-14T00:26:24;4.13;;;3.83;;
50555;SDS011;36508;52.512;13.450;2023-06-14T00:28:51;7.87;;;4.30;;
50555;SDS011;36508;52.512;13.450;2023-06-14T00:31:17;4.87;;;4.40;;
50555;SDS011;36508;52.512;13.450;2023-06-14T00:33:42;3.90;;;3.30;;
50555;SDS011;36508;52.512;13.450;2023-06-14T00:36:08;4.17;;;3.87;;
50555;SDS011;36508;52.512;13.450;2023-06-14T00:38:33;4.60;;;3.80;;
50555;SDS011;36508;52.512;13.450;2023-06-14T00:41:00;3.53;;;3.30;;
50555;SDS011;36508;52.512;13.450;2023-06-14T00:43:25;3.57;;;3.37;;
50555;SDS011;36508;52.512;13.450;2023-06-14T00:45:51;2.97;;;2.87;;
50555;SDS011;36508;52.512;13.450;2023-06-14T00:48:17;4.20;;;3.83;;
50555;SDS011;36508;52.512;13.450;2023-06-14T00:50:44;4.47;;;4.17;;
50555;SDS011;36508;52.512;13.450;2023-06-14T00:53:13;3.77;;;3.57;;
50555;SDS011;36508;52.512;13.450;2023-06-14T00:55:42;4.00;;;3.77;;
50555;SDS011;36508;52.512;13.450;2023-06-14T00:58:08;5.97;;;4.20;;
50555;SDS011;36508;52.512;13.450;2023-06-14T01:00:35;3.90;;;3.60;;
50555;SDS011;36508;52.512;13.450;2023-06-14T01:03:01;5.10;;;4.70;;
50555;SDS011;36508;52.512;13.450;2023-06-14T01:05:27;5.23;;;4.80;;
50555;SDS011;36508;52.512;13.450;2023-06-14T01:13:28;5.23;;;4.93;;
50555;SDS011;36508;52.512;13.450;2023-06-14T01:15:58;5.37;;;5.03;;
50555;SDS011;36508;52.512;13.450;2023-06-14T01:18:24;8.67;;;7.77;;
50555;SDS011;36508;52.512;13.450;2023-06-14T01:20:55;5.07;;;4.87;;
50555;SDS011;36508;52.512;13.450;2023-06-14T01:23:22;5.47;;;5.07;;
50555;SDS011;36508;52.512;13.450;2023-06-14T01:25:49;5.10;;;4.60;;
50555;SDS011;36508;52.512;13.450;2023-06-14T01:28:20;5.43;;;5.10;;
50555;SDS011;36508;52.512;13.450;2023-06-14T01:30:47;4.63;;;4.43;;
50555;SDS011;36508;52.512;13.450;2023-06-14T01:33:24;5.13;;;4.83;;
50555;SDS011;36508;52.512;13.450;2023-06-14T01:35:52;4.60;;;4.30;;
50555;SDS011;36508;52.512;13.450;2023-06-14T01:38:22;5.27;;;4.77;;
50555;SDS011;36508;52.512;13.450;2023-06-14T01:40:49;5.43;;;5.07;;
50555;SDS011;36508;52.512;13.450;2023-06-14T01:43:16;4.70;;;4.40;;
50555;SDS011;36508;52.512;13.450;2023-06-14T01:45:44;5.20;;;4.80;;
50555;SDS011;36508;52.512;13.450;2023-06-14T01:48:12;4.70;;;4.50;;
50555;SDS011;36508;52.512;13.450;2023-06-14T01:50:38;4.90;;;4.57;;
50555;SDS011;36508;52.512;13.450;2023-06-14T01:53:07;5.80;;;5.30;;
50555;SDS011;36508;52.512;13.450;2023-06-14T01:55:34;5.53;;;5.00;;
50555;SDS011;36508;52.512;13.450;2023-06-14T01:58:03;7.87;;;5.93;;
50555;SDS011;36508;52.512;13.450;2023-06-14T02:00:33;5.20;;;4.90;;
50555;SDS011;36508;52.512;13.450;2023-06-14T02:02:58;5.40;;;5.10;;
50555;SDS011;36508;52.512;13.450;2023-06-14T02:05:24;5.90;;;5.40;;
50555;SDS011;36508;52.512;13.450;2023-06-14T02:07:51;6.97;;;6.50;;
50555;SDS011;36508;52.512;13.450;2023-06-14T02:10:18;5.13;;;4.87;;
50555;SDS011;36508;52.512;13.450;2023-06-14T02:12:44;6.57;;;6.17;;
50555;SDS011;36508;52.512;13.450;2023-06-14T02:15:19;6.20;;;5.70;;
50555;SDS011;36508;52.512;13.450;2023-06-14T02:17:47;7.00;;;6.33;;
50555;SDS011;36508;52.512;13.450;2023-06-14T02:20:14;6.03;;;5.60;;
50555;SDS011;36508;52.512;13.450;2023-06-14T02:22:40;6.60;;;6.10;;
50555;SDS011;36508;52.512;13.450;2023-06-14T02:25:06;6.43;;;5.80;;
50555;SDS011;36508;52.512;13.450;2023-06-14T02:27:33;5.33;;;4.30;;
50555;SDS011;36508;52.512;13.450;2023-06-14T02:29:59;5.97;;;5.60;;
50555;SDS011;36508;52.512;13.450;2023-06-14T02:32:25;5.67;;;5.37;;
50555;SDS011;36508;52.512;13.450;2023-06-14T02:34:52;6.10;;;5.60;;
50555;SDS011;36508;52.512;13.450;2023-06-14T02:37:18;5.97;;;5.63;;
50555;SDS011;36508;52.512;13.450;2023-06-14T02:39:44;7.90;;;6.60;;
50555;SDS011;36508;52.512;13.450;2023-06-14T02:42:10;7.13;;;5.23;;
50555;SDS011;36508;52.512;13.450;2023-06-14T02:44:36;5.30;;;5.00;;
50555;SDS011;36508;52.512;13.450;2023-06-14T02:47:02;9.23;;;6.93;;
50555;SDS011;36508;52.512;13.450;2023-06-14T02:49:28;6.77;;;6.17;;
50555;SDS011;36508;52.512;13.450;2023-06-14T02:52:02;7.53;;;7.03;;
50555;SDS011;36508;52.512;13.450;2023-06-14T02:54:28;5.43;;;5.03;;
50555;SDS011;36508;52.512;13.450;2023-06-14T02:56:53;5.90;;;5.57;;
50555;SDS011;36508;52.512;13.450;2023-06-14T02:59:20;6.07;;;5.70;;
50555;SDS011;36508;52.512;13.450;2023-06-14T03:01:46;5.50;;;5.17;;
50555;SDS011;36508;52.512;13.450;2023-06-14T03:04:12;6.23;;;5.83;;
50555;SDS011;36508;52.512;13.450;2023-06-14T03:06:38;6.87;;;6.37;;
50555;SDS011;36508;52.512;13.450;2023-06-14T03:09:04;6.47;;;5.77;;
50555;SDS011;36508;52.512;13.450;2023-06-14T03:11:30;6.00;;;5.50;;
50555;SDS011;36508;52.512;13.450;2023-06-14T03:13:56;5.00;;;4.50;;
50555;SDS011;36508;52.512;13.450;2023-06-14T03:16:22;6.27;;;5.80;;
50555;SDS011;36508;52.512;13.450;2023-06-14T03:18:49;7.10;;;6.40;;
50555;SDS011;36508;52.512;13.450;2023-06-14T03:21:20;6.53;;;6.13;;
50555;SDS011;36508;52.512;13.450;2023-06-14T03:23:49;6.10;;;5.70;;
50555;SDS011;36508;52.512;13.450;2023-06-14T03:26:15;6.83;;;6.33;;
50555;SDS011;36508;52.512;13.450;2023-06-14T03:28:44;5.77;;;5.40;;
50555;SDS011;36508;52.512;13.450;2023-06-14T03:31:12;6.87;;;6.20;;
50555;SDS011;36508;52.512;13.450;2023-06-14T03:33:38;8.60;;;6.47;;
50555;SDS011;36508;52.512;13.450;2023-06-14T03:36:12;7.50;;;6.90;;
50555;SDS011;36508;52.512;13.450;2023-06-14T03:38:37;7.33;;;6.73;;
50555;SDS011;36508;52.512;13.450;2023-06-14T03:41:03;6.50;;;6.07;;
50555;SDS011;36508;52.512;13.450;2023-06-14T03:43:29;7.20;;;6.80;;
50555;SDS011;36508;52.512;13.450;2023-06-14T03:45:55;7.00;;;6.30;;
50555;SDS011;36508;52.512;13.450;2023-06-14T03:48:20;7.60;;;6.70;;
50555;SDS011;36508;52.512;13.450;2023-06-14T03:50:46;7.13;;;5.90;;
50555;SDS011;36508;52.512;13.450;2023-06-14T03:53:12;6.27;;;5.67;;
50555;SDS011;36508;52.512;13.450;2023-06-14T03:55:38;6.70;;;6.17;;
50555;SDS011;36508;52.512;13.450;2023-06-14T03:58:04;7.37;;;6.77;;
50555;SDS011;36508;52.512;13.450;2023-06-14T04:00:30;6.70;;;6.20;;
50555;SDS011;36508;52.512;13.450;2023-06-14T04:02:57;6.70;;;6.10;;
50555;SDS011;36508;52.512;13.450;2023-06-14T04:05:22;6.73;;;6.23;;
50555;SDS011;36508;52.512;13.450;2023-06-14T04:07:51;7.07;;;6.43;;
50555;SDS011;36508;52.512;13.450;2023-06-14T04:10:17;7.37;;;6.67;;
50555;SDS011;36508;52.512;13.450;2023-06-14T04:12:47;7.60;;;7.03;;
50555;SDS011;36508;52.512;13.450;2023-06-14T04:15:13;7.47;;;6.97;;
50555;SDS011;36508;52.512;13.450;2023-06-14T04:17:39;7.10;;;6.60;;
50555;SDS011;36508;52.512;13.450;2023-06-14T04:20:05;6.53;;;6.13;;
50555;SDS011;36508;52.512;13.450;2023-06-14T04:22:32;8.40;;;7.43;;
50555;SDS011;36508;52.512;13.450;2023-06-14T04:24:58;7.80;;;6.60;;
50555;SDS011;36508;52.512;13.450;2023-06-14T04:27:25;8.27;;;7.07;;
50555;SDS011;36508;52.512;13.450;2023-06-14T04:29:51;9.13;;;8.00;;
50555;SDS011;36508;52.512;13.450;2023-06-14T04:32:22;14.70;;;11.47;;
50555;SDS011;36508;52.512;13.450;2023-06-14T04:34:57;8.03;;;7.33;;
50555;SDS011;36508;52.512;13.450;2023-06-14T04:37:24;8.20;;;7.50;;
50555;SDS011;36508;52.512;13.450;2023-06-14T04:39:53;7.57;;;6.97;;
50555;SDS011;36508;52.512;13.450;2023-06-14T04:42:20;7.60;;;6.20;;
50555;SDS011;36508;52.512;13.450;2023-06-14T04:44:50;6.47;;;6.07;;
50555;SDS011;36508;52.512;13.450;2023-06-14T04:47:17;9.67;;;7.50;;
50555;SDS011;36508;52.512;13.450;2023-06-14T04:49:43;14.33;;;7.63;;
50555;SDS011;36508;52.512;13.450;2023-06-14T04:52:09;9.17;;;6.90;;
50555;SDS011;36508;52.512;13.450;2023-06-14T04:54:38;7.97;;;7.17;;
50555;SDS011;36508;52.512;13.450;2023-06-14T04:57:09;8.37;;;7.37;;
50555;SDS011;36508;52.512;13.450;2023-06-14T04:59:38;11.87;;;8.97;;
50555;SDS011;36508;52.512;13.450;2023-06-14T05:02:04;11.47;;;8.07;;
50555;SDS011;36508;52.512;13.450;2023-06-14T05:04:30;9.13;;;8.33;;
50555;SDS011;36508;52.512;13.450;2023-06-14T05:06:56;10.07;;;9.00;;
50555;SDS011;36508;52.512;13.450;2023-06-14T05:09:21;15.63;;;9.07;;
50555;SDS011;36508;52.512;13.450;2023-06-14T05:11:47;8.90;;;8.20;;
50555;SDS011;36508;52.512;13.450;2023-06-14T05:14:13;13.50;;;7.60;;
50555;SDS011;36508;52.512;13.450;2023-06-14T05:16:39;9.23;;;8.40;;
50555;SDS011;36508;52.512;13.450;2023-06-14T05:19:05;10.03;;;7.33;;
50555;SDS011;36508;52.512;13.450;2023-06-14T05:21:31;7.73;;;7.13;;
50555;SDS011;36508;52.512;13.450;2023-06-14T05:23:58;10.13;;;9.37;;
50555;SDS011;36508;52.512;13.450;2023-06-14T05:26:24;8.67;;;7.87;;
50555;SDS011;36508;52.512;13.450;2023-06-14T05:28:53;9.40;;;8.60;;
50555;SDS011;36508;52.512;13.450;2023-06-14T05:31:22;7.33;;;6.60;;
50555;SDS011;36508;52.512;13.450;2023-06-14T05:33:49;8.07;;;7.03;;
50555;SDS011;36508;52.512;13.450;2023-06-14T05:36:15;11.23;;;8.67;;
50555;SDS011;36508;52.512;13.450;2023-06-14T05:38:41;14.40;;;9.40;;
50555;SDS011;36508;52.512;13.450;2023-06-14T05:41:06;8.83;;;8.13;;
50555;SDS011;36508;52.512;13.450;2023-06-14T05:43:32;7.60;;;7.00;;
50555;SDS011;36508;52.512;13.450;2023-06-14T05:45:57;8.40;;;7.70;;
50555;SDS011;36508;52.512;13.450;2023-06-14T05:48:23;8.73;;;7.97;;
50555;SDS011;36508;52.512;13.450;2023-06-14T05:50:49;8.77;;;8.27;;
50555;SDS011;36508;52.512;13.450;2023-06-14T05:53:15;11.23;;;7.93;;
50555;SDS011;36508;52.512;13.450;2023-06-14T05:55:40;11.43;;;7.60;;
50555;SDS011;36508;52.512;13.450;2023-06-14T05:58:06;11.00;;;7.27;;
50555;SDS011;36508;52.512;13.450;2023-06-14T06:00:32;8.73;;;6.70;;
50555;SDS011;36508;52.512;13.450;2023-06-14T06:02:57;10.63;;;8.80;;
50555;SDS011;36508;52.512;13.450;2023-06-14T06:05:24;8.97;;;8.10;;
50555;SDS011;36508;52.512;13.450;2023-06-14T06:07:49;8.50;;;7.80;;
50555;SDS011;36508;52.512;13.450;2023-06-14T06:10:15;10.53;;;6.67;;
50555;SDS011;36508;52.512;13.450;2023-06-14T06:12:41;9.57;;;8.60;;
50555;SDS011;36508;52.512;13.450;2023-06-14T06:15:07;7.20;;;6.70;;
50555;SDS011;36508;52.512;13.450;2023-06-14T06:17:36;6.87;;;6.37;;
50555;SDS011;36508;52.512;13.450;2023-06-14T06:20:03;7.00;;;6.40;;
50555;SDS011;36508;52.512;13.450;2023-06-14T06:22:30;9.73;;;6.43;;
50555;SDS011;36508;52.512;13.450;2023-06-14T06:24:56;8.00;;;7.50;;
50555;SDS011;36508;52.512;13.450;2023-06-14T06:27:21;10.60;;;6.73;;
50555;SDS011;36508;52.512;13.450;2023-06-14T06:29:47;8.23;;;7.47;;
50555;SDS011;36508;52.512;13.450;2023-06-14T06:32:13;10.97;;;6.83;;
50555;SDS011;36508;52.512;13.450;2023-06-14T06:34:40;6.53;;;5.87;;
50555;SDS011;36508;52.512;13.450;2023-06-14T06:37:05;7.37;;;6.77;;
50555;SDS011;36508;52.512;13.450;2023-06-14T06:39:31;10.43;;;6.90;;
50555;SDS011;36508;52.512;13.450;2023-06-14T06:41:57;6.53;;;5.93;;
50555;SDS011;36508;52.512;13.450;2023-06-14T06:44:23;6.63;;;5.83;;
50555;SDS011;36508;52.512;13.450;2023-06-14T06:46:49;7.67;;;7.10;;
50555;SDS011;36508;52.512;13.450;2023-06-14T06:49:14;6.10;;;5.70;;
50555;SDS011;36508;52.512;13.450;2023-06-14T06:51:43;8.00;;;7.27;;
50555;SDS011;36508;52.512;13.450;2023-06-14T06:54:23;7.47;;;6.77;;
50555;SDS011;36508;52.512;13.450;2023-06-14T06:56:49;7.93;;;7.23;;
50555;SDS011;36508;52.512;13.450;2023-06-14T06:59:15;7.70;;;7.10;;
50555;SDS011;36508;52.512;13.450;2023-06-14T07:01:41;7.33;;;6.80;;
50555;SDS011;36508;52.512;13.450;2023-06-14T07:04:07;7.50;;;6.07;;
50555;SDS011;36508;52.512;13.450;2023-06-14T07:06:33;7.20;;;5.83;;
50555;SDS011;36508;52.512;13.450;2023-06-14T07:08:58;6.37;;;5.80;;
50555;SDS011;36508;52.512;13.450;2023-06-14T07:11:26;7.13;;;6.40;;
50555;SDS011;36508;52.512;13.450;2023-06-14T07:13:52;11.80;;;7.57;;
50555;SDS011;36508;52.512;13.450;2023-06-14T07:16:18;10.10;;;7.03;;
50555;SDS011;36508;52.512;13.450;2023-06-14T07:18:43;7.93;;;7.33;;
50555;SDS011;36508;52.512;13.450;2023-06-14T07:21:09;8.80;;;7.93;;
50555;SDS011;36508;52.512;13.450;2023-06-14T07:23:35;11.93;;;6.90;;
50555;SDS011;36508;52.512;13.450;2023-06-14T07:26:01;8.37;;;6.63;;
50555;SDS011;36508;52.512;13.450;2023-06-14T07:28:26;9.43;;;8.20;;
50555;SDS011;36508;52.512;13.450;2023-06-14T07:30:52;10.03;;;6.97;;
50555;SDS011;36508;52.512;13.450;2023-06-14T07:33:17;7.07;;;6.43;;
50555;SDS011;36508;52.512;13.450;2023-06-14T07:35:43;7.33;;;6.83;;
50555;SDS011;36508;52.512;13.450;2023-06-14T07:38:09;6.53;;;5.83;;
50555;SDS011;36508;52.512;13.450;2023-06-14T07:40:34;7.40;;;6.73;;
50555;SDS011;36508;52.512;13.450;2023-06-14T07:43:00;7.10;;;6.60;;
50555;SDS011;36508;52.512;13.450;2023-06-14T07:45:27;15.77;;;7.40;;
50555;SDS011;36508;52.512;13.450;2023-06-14T07:47:52;11.90;;;7.30;;
50555;SDS011;36508;52.512;13.450;2023-06-14T07:50:18;10.60;;;6.43;;
50555;SDS011;36508;52.512;13.450;2023-06-14T07:52:44;7.20;;;6.30;;
50555;SDS011;36508;52.512;13.450;2023-06-14T07:55:10;8.50;;;7.00;;
50555;SDS011;36508;52.512;13.450;2023-06-14T07:57:36;8.97;;;7.73;;
50555;SDS011;36508;52.512;13.450;2023-06-14T08:00:02;6.60;;;6.10;;
50555;SDS011;36508;52.512;13.450;2023-06-14T08:02:31;9.57;;;6.50;;
50555;SDS011;36508;52.512;13.450;2023-06-14T08:04:56;7.80;;;7.27;;
50555;SDS011;36508;52.512;13.450;2023-06-14T08:07:23;8.87;;;5.80;;
50555;SDS011;36508;52.512;13.450;2023-06-14T08:09:49;7.93;;;7.30;;
50555;SDS011;36508;52.512;13.450;2023-06-14T08:12:15;8.70;;;7.10;;
50555;SDS011;36508;52.512;13.450;2023-06-14T08:14:41;7.80;;;7.00;;
50555;SDS011;36508;52.512;13.450;2023-06-14T08:17:07;10.73;;;9.83;;
50555;SDS011;36508;52.512;13.450;2023-06-14T08:19:33;7.50;;;6.73;;
50555;SDS011;36508;52.512;13.450;2023-06-14T08:21:59;7.80;;;7.10;;
50555;SDS011;36508;52.512;13.450;2023-06-14T08:24:25;6.70;;;6.07;;
50555;SDS011;36508;52.512;13.450;2023-06-14T08:26:52;7.47;;;6.23;;
50555;SDS011;36508;52.512;13.450;2023-06-14T08:29:18;10.97;;;8.57;;
50555;SDS011;36508;52.512;13.450;2023-06-14T08:31:44;7.03;;;6.30;;
50555;SDS011;36508;52.512;13.450;2023-06-14T08:34:10;11.07;;;6.57;;
50555;SDS011;36508;52.512;13.450;2023-06-14T08:36:36;6.63;;;6.03;;
50555;SDS011;36508;52.512;13.450;2023-06-14T08:39:02;8.47;;;7.53;;
50555;SDS011;36508;52.512;13.450;2023-06-14T08:41:27;9.37;;;5.70;;
50555;SDS011;36508;52.512;13.450;2023-06-14T08:43:54;7.27;;;6.50;;
50555;SDS011;36508;52.512;13.450;2023-06-14T08:46:20;5.27;;;4.83;;
50555;SDS011;36508;52.512;13.450;2023-06-14T08:48:51;8.03;;;6.00;;
50555;SDS011;36508;52.512;13.450;2023-06-14T08:51:18;8.57;;;7.83;;
50555;SDS011;36508;52.512;13.450;2023-06-14T08:53:44;6.87;;;6.37;;
50555;SDS011;36508;52.512;13.450;2023-06-14T08:56:11;6.93;;;5.27;;
50555;SDS011;36508;52.512;13.450;2023-06-14T08:58:40;6.47;;;5.90;;
50555;SDS011;36508;52.512;13.450;2023-06-14T09:01:10;5.33;;;4.93;;
50555;SDS011;36508;52.512;13.450;2023-06-14T09:03:39;9.43;;;8.73;;
50555;SDS011;36508;52.512;13.450;2023-06-14T09:06:06;11.27;;;5.80;;
50555;SDS011;36508;52.512;13.450;2023-06-14T09:08:34;7.40;;;5.60;;
50555;SDS011;36508;52.512;13.450;2023-06-14T09:11:01;4.80;;;4.40;;
50555;SDS011;36508;52.512;13.450;2023-06-14T09:13:27;6.13;;;5.60;;
50555;SDS011;36508;52.512;13.450;2023-06-14T09:15:52;6.10;;;5.60;;
50555;SDS011;36508;52.512;13.450;2023-06-14T09:18:18;7.80;;;5.00;;
50555;SDS011;36508;52.512;13.450;2023-06-14T09:20:47;6.40;;;5.70;;
50555;SDS011;36508;52.512;13.450;2023-06-14T09:23:13;4.43;;;4.10;;
50555;SDS011;36508;52.512;13.450;2023-06-14T09:25:45;15.03;;;4.67;;
50555;SDS011;36508;52.512;13.450;2023-06-14T09:28:11;4.90;;;4.70;;
50555;SDS011;36508;52.512;13.450;2023-06-14T09:30:37;9.73;;;7.13;;
50555;SDS011;36508;52.512;13.450;2023-06-14T09:33:03;6.63;;;4.40;;
50555;SDS011;36508;52.512;13.450;2023-06-14T09:35:30;5.43;;;4.40;;
50555;SDS011;36508;52.512;13.450;2023-06-14T09:37:57;4.80;;;4.40;;
50555;SDS011;36508;52.512;13.450;2023-06-14T09:40:22;4.70;;;4.43;;
50555;SDS011;36508;52.512;13.450;2023-06-14T09:42:48;5.30;;;4.87;;
50555;SDS011;36508;52.512;13.450;2023-06-14T09:45:15;4.90;;;4.50;;
50555;SDS011;36508;52.512;13.450;2023-06-14T09:47:46;4.67;;;4.33;;
50555;SDS011;36508;52.512;13.450;2023-06-14T09:50:14;5.70;;;5.20;;
50555;SDS011;36508;52.512;13.450;2023-06-14T09:52:39;6.53;;;6.03;;
50555;SDS011;36508;52.512;13.450;2023-06-14T09:55:11;6.43;;;6.03;;
50555;SDS011;36508;52.512;13.450;2023-06-14T09:57:38;6.73;;;6.10;;
50555;SDS011;36508;52.512;13.450;2023-06-14T10:00:08;4.73;;;4.50;;
50555;SDS011;36508;52.512;13.450;2023-06-14T10:02:36;6.03;;;5.53;;
50555;SDS011;36508;52.512;13.450;2023-06-14T10:05:07;7.43;;;5.67;;
50555;SDS011;36508;52.512;13.450;2023-06-14T10:07:53;6.07;;;5.50;;
50555;SDS011;36508;52.512;13.450;2023-06-14T10:10:19;5.33;;;5.03;;
50555;SDS011;36508;52.512;13.450;2023-06-14T10:12:45;5.50;;;5.20;;
50555;SDS011;36508;52.512;13.450;2023-06-14T10:15:16;6.03;;;5.53;;
50555;SDS011;36508;52.512;13.450;2023-06-14T10:18:14;5.73;;;5.20;;
50555;SDS011;36508;52.512;13.450;2023-06-14T10:20:53;6.53;;;5.80;;
50555;SDS011;36508;52.512;13.450;2023-06-14T10:23:30;7.63;;;4.90;;
50555;SDS011;36508;52.512;13.450;2023-06-14T10:26:00;10.10;;;4.90;;
50555;SDS011;36508;52.512;13.450;2023-06-14T10:28:26;10.30;;;6.30;;
50555;SDS011;36508;52.512;13.450;2023-06-14T10:31:01;9.07;;;5.20;;
50555;SDS011;36508;52.512;13.450;2023-06-14T10:33:35;4.50;;;4.30;;
50555;SDS011;36508;52.512;13.450;2023-06-14T10:38:56;4.90;;;3.70;;
50555;SDS011;36508;52.512;13.450;2023-06-14T10:41:22;4.80;;;4.13;;
50555;SDS011;36508;52.512;13.450;2023-06-14T10:43:49;5.60;;;5.10;;
50555;SDS011;36508;52.512;13.450;2023-06-14T10:46:15;7.50;;;4.70;;
50555;SDS011;36508;52.512;13.450;2023-06-14T10:48:42;9.60;;;6.47;;
50555;SDS011;36508;52.512;13.450;2023-06-14T10:51:18;19.23;;;6.73;;
50555;SDS011;36508;52.512;13.450;2023-06-14T10:53:45;6.23;;;4.90;;
50555;SDS011;36508;52.512;13.450;2023-06-14T10:56:28;6.27;;;5.50;;
50555;SDS011;36508;52.512;13.450;2023-06-14T10:58:57;6.60;;;5.60;;
50555;SDS011;36508;52.512;13.450;2023-06-14T11:01:28;10.00;;;8.40;;
50555;SDS011;36508;52.512;13.450;2023-06-14T11:04:10;9.20;;;8.60;;
50555;SDS011;36508;52.512;13.450;2023-06-14T11:06:46;6.80;;;6.07;;
50555;SDS011;36508;52.512;13.450;2023-06-14T11:09:26;5.63;;;5.33;;
50555;SDS011;36508;52.512;13.450;2023-06-14T11:12:16;7.87;;;7.23;;
50555;SDS011;36508;52.512;13.450;2023-06-14T11:14:45;8.23;;;6.50;;
50555;SDS011;36508;52.512;13.450;2023-06-14T11:17:12;9.60;;;4.90;;
50555;SDS011;36508;52.512;13.450;2023-06-14T11:19:37;7.93;;;7.40;;
50555;SDS011;36508;52.512;13.450;2023-06-14T11:22:03;21.83;;;6.83;;
50555;SDS011;36508;52.512;13.450;2023-06-14T11:24:29;9.93;;;6.27;;
50555;SDS011;36508;52.512;13.450;2023-06-14T11:26:57;9.90;;;5.63;;
50555;SDS011;36508;52.512;13.450;2023-06-14T11:29:23;4.80;;;4.40;;
50555;SDS011;36508;52.512;13.450;2023-06-14T11:31:49;6.17;;;5.67;;
50555;SDS011;36508;52.512;13.450;2023-06-14T11:34:15;5.27;;;4.67;;
50555;SDS011;36508;52.512;13.450;2023-06-14T11:36:41;6.27;;;5.87;;
50555;SDS011;36508;52.512;13.450;2023-06-14T11:39:08;9.10;;;5.80;;
50555;SDS011;36508;52.512;13.450;2023-06-14T11:41:43;5.63;;;5.30;;
50555;SDS011;36508;52.512;13.450;2023-06-14T11:44:10;5.20;;;4.80;;
50555;SDS011;36508;52.512;13.450;2023-06-14T11:46:36;7.27;;;4.40;;
50555;SDS011;36508;52.512;13.450;2023-06-14T11:49:03;6.73;;;6.13;;
50555;SDS011;36508;52.512;13.450;2023-06-14T11:51:33;7.00;;;5.90;;
50555;SDS011;36508;52.512;13.450;2023-06-14T11:53:59;6.60;;;5.50;;
50555;SDS011;36508;52.512;13.450;2023-06-14T11:56:29;8.53;;;5.27;;
50555;SDS011;36508;52.512;13.450;2023-06-14T11:58:55;8.00;;;5.20;;
50555;SDS011;36508;52.512;13.450;2023-06-14T12:01:22;5.40;;;4.90;;
50555;SDS011;36508;52.512;13.450;2023-06-14T12:03:48;6.00;;;5.10;;
50555;SDS011;36508;52.512;13.450;2023-06-14T12:06:16;9.57;;;5.27;;
50555;SDS011;36508;52.512;13.450;2023-06-14T12:08:55;4.77;;;4.47;;
50555;SDS011;36508;52.512;13.450;2023-06-14T12:11:21;14.00;;;12.90;;
50555;SDS011;36508;52.512;13.450;2023-06-14T12:13:47;6.63;;;5.30;;
50555;SDS011;36508;52.512;13.450;2023-06-14T12:16:14;6.73;;;6.10;;
50555;SDS011;36508;52.512;13.450;2023-06-14T12:18:40;6.87;;;6.17;;
50555;SDS011;36508;52.512;13.450;2023-06-14T12:21:08;7.37;;;6.30;;
50555;SDS011;36508;52.512;13.450;2023-06-14T12:23:47;5.57;;;5.27;;
50555;SDS011;36508;52.512;13.450;2023-06-14T12:26:16;6.30;;;5.57;;
50555;SDS011;36508;52.512;13.450;2023-06-14T12:28:46;9.60;;;5.50;;
50555;SDS011;36508;52.512;13.450;2023-06-14T12:31:13;6.23;;;5.30;;
50555;SDS011;36508;52.512;13.450;2023-06-14T12:33:43;5.10;;;4.50;;
50555;SDS011;36508;52.512;13.450;2023-06-14T12:36:10;5.60;;;4.80;;
50555;SDS011;36508;52.512;13.450;2023-06-14T12:38:36;4.30;;;3.97;;
50555;SDS011;36508;52.512;13.450;2023-06-14T12:41:03;6.17;;;5.03;;
50555;SDS011;36508;52.512;13.450;2023-06-14T12:43:29;5.13;;;4.77;;
50555;SDS011;36508;52.512;13.450;2023-06-14T12:45:54;5.43;;;4.63;;
50555;SDS011;36508;52.512;13.450;2023-06-14T12:48:20;8.73;;;6.27;;
50555;SDS011;36508;52.512;13.450;2023-06-14T12:50:46;4.80;;;4.40;;
50555;SDS011;36508;52.512;13.450;2023-06-14T12:53:14;5.67;;;4.70;;
50555;SDS011;36508;52.512;13.450;2023-06-14T12:55:40;6.97;;;6.33;;
50555;SDS011;36508;52.512;13.450;2023-06-14T12:58:06;5.30;;;4.83;;
50555;SDS011;36508;52.512;13.450;2023-06-14T13:00:32;6.07;;;4.80;;
50555;SDS011;36508;52.512;13.450;2023-06-14T13:02:57;8.97;;;4.73;;
50555;SDS011;36508;52.512;13.450;2023-06-14T13:05:23;4.17;;;3.97;;
50555;SDS011;36508;52.512;13.450;2023-06-14T13:07:49;5.23;;;4.63;;
50555;SDS011;36508;52.512;13.450;2023-06-14T13:10:15;4.77;;;4.23;;
50555;SDS011;36508;52.512;13.450;2023-06-14T13:12:42;5.27;;;4.53;;
50555;SDS011;36508;52.512;13.450;2023-06-14T13:15:07;11.83;;;4.63;;
50555;SDS011;36508;52.512;13.450;2023-06-14T13:17:34;5.70;;;5.20;;
50555;SDS011;36508;52.512;13.450;2023-06-14T13:20:04;6.73;;;5.50;;
50555;SDS011;36508;52.512;13.450;2023-06-14T13:22:33;5.30;;;4.80;;
50555;SDS011;36508;52.512;13.450;2023-06-14T13:24:59;6.60;;;6.10;;
50555;SDS011;36508;52.512;13.450;2023-06-14T13:27:26;5.03;;;4.63;;
50555;SDS011;36508;52.512;13.450;2023-06-14T13:29:52;5.83;;;5.33;;
50555;SDS011;36508;52.512;13.450;2023-06-14T13:32:17;5.50;;;4.20;;
50555;SDS011;36508;52.512;13.450;2023-06-14T13:34:43;4.63;;;4.33;;
50555;SDS011;36508;52.512;13.450;2023-06-14T13:37:09;6.17;;;5.67;;
50555;SDS011;36508;52.512;13.450;2023-06-14T13:39:34;6.53;;;4.40;;
50555;SDS011;36508;52.512;13.450;2023-06-14T13:42:02;5.10;;;4.70;;
50555;SDS011;36508;52.512;13.450;2023-06-14T13:44:28;8.87;;;4.73;;
50555;SDS011;36508;52.512;13.450;2023-06-14T13:46:54;10.53;;;5.00;;
50555;SDS011;36508;52.512;13.450;2023-06-14T13:49:19;8.80;;;4.20;;
50555;SDS011;36508;52.512;13.450;2023-06-14T13:51:45;5.10;;;4.83;;
50555;SDS011;36508;52.512;13.450;2023-06-14T13:54:12;5.23;;;4.83;;
50555;SDS011;36508;52.512;13.450;2023-06-14T13:56:39;6.50;;;5.87;;
50555;SDS011;36508;52.512;13.450;2023-06-14T13:59:05;4.63;;;4.23;;
50555;SDS011;36508;52.512;13.450;2023-06-14T14:01:31;12.63;;;5.00;;
50555;SDS011;36508;52.512;13.450;2023-06-14T14:03:57;5.63;;;5.13;;
50555;SDS011;36508;52.512;13.450;2023-06-14T14:06:23;5.17;;;4.83;;
50555;SDS011;36508;52.512;13.450;2023-06-14T14:08:49;5.63;;;5.17;;
50555;SDS011;36508;52.512;13.450;2023-06-14T14:11:15;5.13;;;4.83;;
50555;SDS011;36508;52.512;13.450;2023-06-14T14:13:41;5.40;;;5.03;;
50555;SDS011;36508;52.512;13.450;2023-06-14T14:16:07;6.30;;;5.80;;
50555;SDS011;36508;52.512;13.450;2023-06-14T14:18:33;5.23;;;4.73;;
50555;SDS011;36508;52.512;13.450;2023-06-14T14:20:58;5.63;;;5.17;;
50555;SDS011;36508;52.512;13.450;2023-06-14T14:23:25;9.10;;;5.90;;
50555;SDS011;36508;52.512;13.450;2023-06-14T14:25:51;6.40;;;5.03;;
50555;SDS011;36508;52.512;13.450;2023-06-14T14:28:17;6.67;;;6.07;;
50555;SDS011;36508;52.512;13.450;2023-06-14T14:30:44;4.43;;;4.13;;
50555;SDS011;36508;52.512;13.450;2023-06-14T14:33:10;6.30;;;5.37;;
50555;SDS011;36508;52.512;13.450;2023-06-14T14:35:40;8.10;;;5.00;;
50555;SDS011;36508;52.512;13.450;2023-06-14T14:38:07;8.47;;;7.83;;
50555;SDS011;36508;52.512;13.450;2023-06-14T14:40:32;7.33;;;6.63;;
50555;SDS011;36508;52.512;13.450;2023-06-14T14:42:58;11.20;;;4.97;;